createdAt,value
2017-08-03T00:00:17.891Z,0
2017-08-03T00:02:00.280Z,0
2017-08-03T00:03:04.407Z,0
2017-08-03T00:04:05.813Z,0
2017-08-03T00:05:07.987Z,0
2017-08-03T00:06:09.687Z,0
2017-08-03T00:07:11.402Z,0
2017-08-03T00:08:13.179Z,0
2017-08-03T00:09:15.193Z,0
2017-08-03T00:10:17.264Z,0
2017-08-03T00:11:18.967Z,0
2017-08-03T00:12:21.124Z,0
2017-08-03T00:13:22.557Z,0
2017-08-03T00:14:23.976Z,0
2017-08-03T00:15:25.375Z,0
2017-08-03T00:16:28.098Z,0
2017-08-03T00:17:29.750Z,0
2017-08-03T00:18:31.915Z,0
2017-08-03T00:19:33.428Z,0
2017-08-03T00:20:34.842Z,0
2017-08-03T00:21:36.310Z,0
2017-08-03T00:22:38.374Z,0
2017-08-03T00:23:40.598Z,0
2017-08-03T00:24:44.407Z,0
2017-08-03T00:25:45.834Z,0
2017-08-03T00:26:48.898Z,0
2017-08-03T00:27:50.582Z,0
2017-08-03T00:28:52.796Z,0
2017-08-03T00:29:54.422Z,0
2017-08-03T00:30:55.826Z,0
2017-08-03T00:31:57.350Z,0
2017-08-03T00:32:58.810Z,0
2017-08-03T00:34:00.227Z,0
2017-08-03T00:35:01.679Z,0
2017-08-03T00:36:03.537Z,0
2017-08-03T00:37:05.797Z,0
2017-08-03T00:38:07.213Z,0
2017-08-03T00:39:08.613Z,0
2017-08-03T00:40:10.038Z,0
2017-08-03T00:41:11.942Z,0
2017-08-03T00:42:13.867Z,0
2017-08-03T00:43:15.665Z,0
2017-08-03T00:44:17.694Z,0
2017-08-03T00:45:19.383Z,0
2017-08-03T00:46:21.347Z,0
2017-08-03T00:47:23.077Z,0
2017-08-03T00:48:24.773Z,0
2017-08-03T00:49:26.618Z,0
2017-08-03T00:50:28.827Z,0
2017-08-03T00:51:30.553Z,0
2017-08-03T00:52:32.711Z,0
2017-08-03T00:54:15.098Z,0
2017-08-03T00:55:16.484Z,0
2017-08-03T00:56:17.853Z,0
2017-08-03T00:57:19.341Z,0
2017-08-03T00:58:20.815Z,0
2017-08-03T00:59:22.533Z,0
2017-08-03T01:00:24.618Z,0
2017-08-03T01:01:26.761Z,0
2017-08-03T01:02:28.449Z,0
2017-08-03T01:03:30.510Z,0
2017-08-03T01:04:32.619Z,0
2017-08-03T01:05:34.429Z,0
2017-08-03T01:06:36.541Z,0
2017-08-03T01:07:38.901Z,0
2017-08-03T01:08:40.302Z,0
2017-08-03T01:09:42.037Z,0
2017-08-03T01:10:43.588Z,0
2017-08-03T01:11:45.002Z,0
2017-08-03T01:12:46.823Z,0
2017-08-03T01:13:48.577Z,0
2017-08-03T01:14:50.479Z,0
2017-08-03T01:15:52.565Z,0
2017-08-03T01:16:54.359Z,0
2017-08-03T01:18:40.141Z,0
2017-08-03T01:19:43.712Z,0
2017-08-03T01:20:45.797Z,0
2017-08-03T01:21:47.494Z,0
2017-08-03T01:22:49.529Z,0
2017-08-03T01:23:51.651Z,0
2017-08-03T01:24:53.098Z,0
2017-08-03T01:25:55.069Z,0
2017-08-03T01:26:57.154Z,0
2017-08-03T01:27:59.328Z,0
2017-08-03T01:29:01.460Z,0
2017-08-03T01:30:02.958Z,0
2017-08-03T01:31:04.356Z,0
2017-08-03T01:32:05.865Z,0
2017-08-03T01:33:07.336Z,0
2017-08-03T01:34:09.579Z,0
2017-08-03T01:35:11.500Z,0
2017-08-03T01:36:13.626Z,0
2017-08-03T01:37:15.783Z,0
2017-08-03T01:38:17.590Z,0
2017-08-03T01:39:19.824Z,0
2017-08-03T01:40:21.529Z,0
2017-08-03T01:41:23.281Z,0
2017-08-03T01:42:25.516Z,0
2017-08-03T01:43:26.971Z,0
2017-08-03T01:44:28.570Z,0
2017-08-03T01:45:30.336Z,0
2017-08-03T01:46:32.511Z,0
2017-08-03T01:47:33.982Z,0
2017-08-03T01:48:35.421Z,0
2017-08-03T01:49:37.149Z,0
2017-08-03T01:50:39.501Z,0
2017-08-03T01:51:41.193Z,0
2017-08-03T01:52:42.943Z,0
2017-08-03T01:53:44.322Z,0
2017-08-03T01:55:26.719Z,0
2017-08-03T01:56:28.104Z,0
2017-08-03T01:57:29.505Z,0
2017-08-03T01:58:30.946Z,0
2017-08-03T01:59:32.327Z,0
2017-08-03T02:00:33.720Z,0
2017-08-03T02:01:35.827Z,0
2017-08-03T02:02:37.937Z,0
2017-08-03T02:03:39.870Z,0
2017-08-03T02:04:42.003Z,0
2017-08-03T02:05:43.485Z,0
2017-08-03T02:06:44.952Z,0
2017-08-03T02:07:46.491Z,0
2017-08-03T02:08:47.939Z,0
2017-08-03T02:09:49.495Z,0
2017-08-03T02:10:50.884Z,0
2017-08-03T02:11:52.404Z,0
2017-08-03T02:12:54.451Z,0
2017-08-03T02:13:56.500Z,0
2017-08-03T02:14:57.926Z,0
2017-08-03T02:16:00.082Z,0
2017-08-03T02:17:02.173Z,0
2017-08-03T02:18:03.660Z,0
2017-08-03T02:19:05.076Z,0
2017-08-03T02:20:07.146Z,0
2017-08-03T02:21:09.323Z,0
2017-08-03T02:22:10.774Z,0
2017-08-03T02:23:12.580Z,0
2017-08-03T02:24:14.305Z,0
2017-08-03T02:25:57.565Z,0
2017-08-03T02:26:59.153Z,0
2017-08-03T02:28:00.607Z,0
2017-08-03T02:29:02.044Z,0
2017-08-03T02:30:03.956Z,0
2017-08-03T02:31:05.674Z,0
2017-08-03T02:32:07.266Z,0
2017-08-03T02:33:09.007Z,0
2017-08-03T02:34:11.170Z,0
2017-08-03T02:35:12.907Z,0
2017-08-03T02:36:14.676Z,0
2017-08-03T02:37:16.013Z,0
2017-08-03T02:38:17.417Z,0
2017-08-03T02:39:18.891Z,0
2017-08-03T02:41:01.260Z,0
2017-08-03T02:42:02.665Z,0
2017-08-03T02:43:04.067Z,0
2017-08-03T02:44:05.440Z,0
2017-08-03T02:45:06.936Z,0
2017-08-03T02:46:09.282Z,0
2017-08-03T02:47:10.569Z,0
2017-08-03T02:48:11.956Z,0
2017-08-03T02:49:13.340Z,0
2017-08-03T02:50:14.750Z,0
2017-08-03T02:51:16.138Z,0
2017-08-03T02:52:17.810Z,0
2017-08-03T02:53:19.202Z,0
2017-08-03T02:54:20.897Z,0
2017-08-03T02:55:22.553Z,0
2017-08-03T02:56:23.952Z,0
2017-08-03T02:57:25.357Z,0
2017-08-03T02:58:27.234Z,0
2017-08-03T02:59:28.626Z,0
2017-08-03T03:00:30.385Z,0
2017-08-03T03:01:31.774Z,0
2017-08-03T03:02:33.240Z,0
2017-08-03T03:03:35.520Z,0
2017-08-03T03:04:37.168Z,0
2017-08-03T03:05:38.551Z,0
2017-08-03T03:06:40.283Z,0
2017-08-03T03:07:41.764Z,0
2017-08-03T03:08:43.162Z,0
2017-08-03T03:09:44.664Z,0
2017-08-03T03:10:46.059Z,0
2017-08-03T03:11:47.976Z,0
2017-08-03T03:12:49.482Z,0
2017-08-03T03:13:50.946Z,0
2017-08-03T03:14:52.410Z,0
2017-08-03T03:15:53.890Z,0
2017-08-03T03:16:55.861Z,0
2017-08-03T03:17:57.675Z,0
2017-08-03T03:18:59.462Z,0
2017-08-03T03:20:01.363Z,0
2017-08-03T03:21:02.798Z,0
2017-08-03T03:22:04.418Z,0
2017-08-03T03:23:06.255Z,0
2017-08-03T03:24:07.656Z,0
2017-08-03T03:25:50.024Z,0
2017-08-03T03:26:51.403Z,0
2017-08-03T03:27:52.781Z,0
2017-08-03T03:28:54.178Z,0
2017-08-03T03:29:55.673Z,0
2017-08-03T03:30:57.194Z,0
2017-08-03T03:31:58.574Z,0
2017-08-03T03:33:00.270Z,0
2017-08-03T03:34:01.652Z,0
2017-08-03T03:35:03.048Z,0
2017-08-03T03:36:04.485Z,0
2017-08-03T03:37:05.864Z,0
2017-08-03T03:38:07.247Z,0
2017-08-03T03:39:08.847Z,0
2017-08-03T03:40:10.332Z,0
2017-08-03T03:41:11.750Z,0
2017-08-03T03:42:13.146Z,0
2017-08-03T03:43:14.821Z,0
2017-08-03T03:44:16.887Z,0
2017-08-03T03:45:18.997Z,0
2017-08-03T03:46:20.447Z,0
2017-08-03T03:47:21.840Z,0
2017-08-03T03:48:23.218Z,0
2017-08-03T03:49:24.633Z,0
2017-08-03T03:50:26.039Z,0
2017-08-03T03:51:27.469Z,0
2017-08-03T03:53:09.975Z,0
2017-08-03T03:54:11.666Z,0
2017-08-03T03:55:13.038Z,0
2017-08-03T03:56:14.452Z,0
2017-08-03T03:57:15.856Z,0
2017-08-03T03:58:17.264Z,0
2017-08-03T03:59:18.672Z,0
2017-08-03T04:00:20.149Z,0
2017-08-03T04:01:21.796Z,0
2017-08-03T04:02:23.978Z,0
2017-08-03T04:03:25.435Z,0
2017-08-03T04:04:27.137Z,0
2017-08-03T04:05:28.539Z,0
2017-08-03T04:06:30.000Z,0
2017-08-03T04:07:31.399Z,0
2017-08-03T04:08:32.808Z,0
2017-08-03T04:10:15.164Z,0
2017-08-03T04:11:16.546Z,0
2017-08-03T04:12:17.931Z,0
2017-08-03T04:13:19.317Z,0
2017-08-03T04:14:20.698Z,0
2017-08-03T04:15:22.082Z,5
2017-08-03T04:16:23.570Z,5
2017-08-03T04:17:24.952Z,5
2017-08-03T04:18:26.365Z,5
2017-08-03T04:19:27.757Z,5
2017-08-03T04:20:29.227Z,10
2017-08-03T04:21:30.653Z,10
2017-08-03T04:22:32.222Z,10
2017-08-03T04:23:33.606Z,10
2017-08-03T04:24:35.040Z,10
2017-08-03T04:25:36.471Z,10
2017-08-03T04:26:37.880Z,10
2017-08-03T04:27:39.315Z,10
2017-08-03T04:28:40.713Z,10
2017-08-03T04:29:42.134Z,10
2017-08-03T04:30:43.520Z,10
2017-08-03T04:31:44.912Z,10
2017-08-03T04:32:46.410Z,10
2017-08-03T04:33:47.822Z,10
2017-08-03T04:34:49.246Z,10
2017-08-03T04:35:50.626Z,10
2017-08-03T04:36:52.083Z,10
2017-08-03T04:38:34.465Z,10
2017-08-03T04:39:35.847Z,15
2017-08-03T04:40:37.230Z,15
2017-08-03T04:41:38.622Z,15
2017-08-03T04:42:40.106Z,15
2017-08-03T04:43:41.727Z,15
2017-08-03T04:44:43.142Z,15
2017-08-03T04:45:44.607Z,15
2017-08-03T04:46:46.016Z,15
2017-08-03T04:47:47.408Z,15
2017-08-03T04:48:48.951Z,20
2017-08-03T04:49:50.915Z,20
2017-08-03T04:50:52.391Z,20
2017-08-03T04:51:53.822Z,25
2017-08-03T04:52:55.236Z,25
2017-08-03T04:53:56.992Z,25
2017-08-03T04:54:58.458Z,30
2017-08-03T04:55:59.903Z,30
2017-08-03T04:57:01.319Z,35
2017-08-03T04:58:02.725Z,35
2017-08-03T04:59:04.419Z,40
2017-08-03T05:00:06.233Z,40
2017-08-03T05:01:07.680Z,45
2017-08-03T05:02:09.256Z,45
2017-08-03T05:03:10.897Z,45
2017-08-03T05:04:12.307Z,50
2017-08-03T05:05:13.696Z,50
2017-08-03T05:06:15.142Z,45
2017-08-03T05:07:16.641Z,40
2017-08-03T05:08:18.090Z,40
2017-08-03T05:09:20.114Z,40
2017-08-03T05:10:21.520Z,40
2017-08-03T05:11:22.931Z,40
2017-08-03T05:12:24.318Z,35
2017-08-03T05:13:26.432Z,40
2017-08-03T05:14:27.849Z,40
2017-08-03T05:15:29.261Z,45
2017-08-03T05:16:30.667Z,45
2017-08-03T05:17:32.076Z,50
2017-08-03T05:18:33.489Z,50
2017-08-03T05:19:34.962Z,55
2017-08-03T05:20:36.396Z,55
2017-08-03T05:21:37.822Z,55
2017-08-03T05:22:39.268Z,60
2017-08-03T05:23:40.687Z,70
2017-08-03T05:24:42.094Z,80
2017-08-03T05:25:43.486Z,90
2017-08-03T05:26:44.896Z,105
2017-08-03T05:27:46.596Z,120
2017-08-03T05:28:48.164Z,140
2017-08-03T05:29:49.633Z,160
2017-08-03T05:30:51.163Z,170
2017-08-03T05:31:52.552Z,175
2017-08-03T05:32:53.980Z,180
2017-08-03T05:33:55.402Z,180
2017-08-03T05:34:56.797Z,170
2017-08-03T05:35:58.205Z,155
2017-08-03T05:36:59.657Z,130
2017-08-03T05:38:01.077Z,115
2017-08-03T05:39:02.516Z,100
2017-08-03T05:40:44.901Z,95
2017-08-03T05:41:46.789Z,90
2017-08-03T05:42:48.152Z,85
2017-08-03T05:43:50.187Z,80
2017-08-03T05:44:51.826Z,75
2017-08-03T05:45:53.459Z,75
2017-08-03T05:46:54.885Z,70
2017-08-03T05:47:56.284Z,70
2017-08-03T05:48:57.668Z,65
2017-08-03T05:49:59.058Z,65
2017-08-03T05:51:00.460Z,65
2017-08-03T05:52:01.855Z,60
2017-08-03T05:53:03.597Z,55
2017-08-03T05:54:05.090Z,50
2017-08-03T05:55:06.497Z,50
2017-08-03T05:56:07.883Z,50
2017-08-03T05:57:09.308Z,50
2017-08-03T05:58:10.720Z,50
2017-08-03T05:59:12.119Z,50
2017-08-03T06:00:13.544Z,55
2017-08-03T06:01:15.791Z,55
2017-08-03T06:02:17.632Z,55
2017-08-03T06:03:19.578Z,60
2017-08-03T06:04:21.236Z,60
2017-08-03T06:05:22.696Z,60
2017-08-03T06:06:24.118Z,65
2017-08-03T06:07:26.211Z,65
2017-08-03T06:08:27.764Z,70
2017-08-03T06:09:29.176Z,75
2017-08-03T06:11:11.561Z,75
2017-08-03T06:12:13.828Z,75
2017-08-03T06:13:15.263Z,75
2017-08-03T06:14:16.713Z,75
2017-08-03T06:15:18.218Z,75
2017-08-03T06:16:19.698Z,75
2017-08-03T06:17:21.108Z,80
2017-08-03T06:18:22.725Z,85
2017-08-03T06:19:24.487Z,95
2017-08-03T06:20:25.908Z,100
2017-08-03T06:21:27.602Z,105
2017-08-03T06:22:29.054Z,110
2017-08-03T06:23:30.518Z,115
2017-08-03T06:24:31.920Z,115
2017-08-03T06:25:33.343Z,120
2017-08-03T06:26:34.791Z,145
2017-08-03T06:27:36.786Z,165
2017-08-03T06:28:38.259Z,205
2017-08-03T06:29:39.739Z,240
2017-08-03T06:30:41.134Z,265
2017-08-03T06:31:42.585Z,275
2017-08-03T06:32:43.999Z,265
2017-08-03T06:33:45.420Z,245
2017-08-03T06:34:47.351Z,230
2017-08-03T06:35:49.402Z,220
2017-08-03T06:36:51.475Z,215
2017-08-03T06:37:52.990Z,210
2017-08-03T06:38:54.409Z,200
2017-08-03T06:39:55.798Z,200
2017-08-03T06:40:57.209Z,190
2017-08-03T06:41:58.613Z,180
2017-08-03T06:43:41.020Z,155
2017-08-03T06:44:42.402Z,135
2017-08-03T06:45:43.790Z,120
2017-08-03T06:46:45.175Z,120
2017-08-03T06:47:46.561Z,125
2017-08-03T06:48:49.395Z,125
2017-08-03T06:49:50.640Z,125
2017-08-03T06:51:33.025Z,150
2017-08-03T06:52:39.837Z,165
2017-08-03T06:53:41.056Z,170
2017-08-03T06:54:42.523Z,180
2017-08-03T06:55:43.962Z,175
2017-08-03T06:56:46.230Z,175
2017-08-03T06:57:47.652Z,160
2017-08-03T06:58:49.094Z,150
2017-08-03T06:59:50.965Z,150
2017-08-03T07:00:52.431Z,155
2017-08-03T07:01:53.862Z,165
2017-08-03T07:02:55.335Z,180
2017-08-03T07:04:37.717Z,200
2017-08-03T07:05:39.105Z,220
2017-08-03T07:06:44.057Z,245
2017-08-03T07:07:45.739Z,260
2017-08-03T07:08:48.035Z,270
2017-08-03T07:09:50.399Z,280
2017-08-03T07:10:52.639Z,285
2017-08-03T07:11:54.395Z,275
2017-08-03T07:12:56.113Z,270
2017-08-03T07:13:58.368Z,275
2017-08-03T07:15:00.606Z,295
2017-08-03T07:16:02.792Z,305
2017-08-03T07:17:04.837Z,320
2017-08-03T07:18:46.171Z,390
2017-08-03T07:19:47.559Z,450
2017-08-03T07:20:49.601Z,475
2017-08-03T07:21:51.253Z,490
2017-08-03T07:22:52.689Z,475
2017-08-03T07:23:54.124Z,470
2017-08-03T07:24:55.934Z,455
2017-08-03T07:25:57.383Z,440
2017-08-03T07:26:58.855Z,460
2017-08-03T07:28:00.672Z,450
2017-08-03T07:29:02.456Z,450
2017-08-03T07:30:03.868Z,450
2017-08-03T07:31:05.351Z,480
2017-08-03T07:32:06.825Z,545
2017-08-03T07:33:08.581Z,560
2017-08-03T07:34:10.082Z,495
2017-08-03T07:35:52.512Z,475
2017-08-03T07:36:53.895Z,475
2017-08-03T07:37:55.955Z,410
2017-08-03T07:38:57.288Z,420
2017-08-03T07:39:59.502Z,500
2017-08-03T07:41:01.324Z,405
2017-08-03T07:42:43.699Z,595
2017-08-03T07:43:45.084Z,630
2017-08-03T07:44:46.470Z,590
2017-08-03T07:45:47.935Z,625
2017-08-03T07:46:49.575Z,595
2017-08-03T07:47:51.207Z,585
2017-08-03T07:48:52.630Z,485
2017-08-03T07:49:54.030Z,520
2017-08-03T07:50:55.676Z,460
2017-08-03T07:51:57.091Z,430
2017-08-03T07:52:58.498Z,635
2017-08-03T07:53:59.938Z,600
2017-08-03T07:55:01.332Z,600
2017-08-03T07:56:43.723Z,400
2017-08-03T07:57:45.118Z,480
2017-08-03T07:58:46.503Z,555
2017-08-03T07:59:47.892Z,730
2017-08-03T08:00:49.352Z,825
2017-08-03T08:01:50.701Z,700
2017-08-03T08:02:52.108Z,860
2017-08-03T08:03:53.503Z,965
2017-08-03T08:04:54.930Z,1135
2017-08-03T08:05:56.359Z,1145
2017-08-03T08:06:57.799Z,1015
2017-08-03T08:07:59.225Z,975
2017-08-03T08:09:00.647Z,790
2017-08-03T08:10:02.053Z,865
2017-08-03T08:11:03.446Z,970
2017-08-03T08:12:05.012Z,1190
2017-08-03T08:13:06.471Z,1155
2017-08-03T08:14:07.886Z,1110
2017-08-03T08:15:50.301Z,1015
2017-08-03T08:16:51.677Z,845
2017-08-03T08:17:53.066Z,780
2017-08-03T08:18:54.463Z,770
2017-08-03T08:19:55.856Z,855
2017-08-03T08:20:57.257Z,855
2017-08-03T08:21:58.652Z,820
2017-08-03T08:23:41.056Z,685
2017-08-03T08:24:42.451Z,585
2017-08-03T08:25:43.849Z,575
2017-08-03T08:26:45.279Z,530
2017-08-03T08:27:46.667Z,475
2017-08-03T08:28:48.062Z,445
2017-08-03T08:29:49.469Z,430
2017-08-03T08:30:50.856Z,410
2017-08-03T08:31:52.245Z,380
2017-08-03T08:32:53.645Z,370
2017-08-03T08:33:55.046Z,360
2017-08-03T08:34:56.436Z,335
2017-08-03T08:35:57.835Z,335
2017-08-03T08:36:59.220Z,350
2017-08-03T08:38:00.618Z,415
2017-08-03T08:39:02.014Z,495
2017-08-03T08:40:03.414Z,560
2017-08-03T08:41:04.811Z,575
2017-08-03T08:42:06.207Z,505
2017-08-03T08:43:07.614Z,465
2017-08-03T08:44:09.008Z,440
2017-08-03T08:45:10.436Z,365
2017-08-03T08:46:11.817Z,325
2017-08-03T08:47:13.204Z,320
2017-08-03T08:48:14.633Z,300
2017-08-03T08:49:57.002Z,300
2017-08-03T08:50:58.390Z,325
2017-08-03T08:51:59.786Z,310
2017-08-03T08:53:01.174Z,310
2017-08-03T08:54:02.573Z,315
2017-08-03T08:55:03.960Z,325
2017-08-03T08:56:05.359Z,335
2017-08-03T08:57:06.750Z,345
2017-08-03T08:58:08.217Z,370
2017-08-03T08:59:09.707Z,420
2017-08-03T09:00:11.101Z,475
2017-08-03T09:01:13.192Z,560
2017-08-03T09:02:14.641Z,640
2017-08-03T09:03:16.054Z,765
2017-08-03T09:04:17.470Z,960
2017-08-03T09:05:19.590Z,1085
2017-08-03T09:06:20.988Z,1130
2017-08-03T09:07:22.466Z,925
2017-08-03T09:08:23.927Z,925
2017-08-03T09:09:25.357Z,1010
2017-08-03T09:10:26.760Z,1150
2017-08-03T09:11:28.154Z,1130
2017-08-03T09:12:29.584Z,1105
2017-08-03T09:13:31.018Z,1005
2017-08-03T09:14:32.420Z,935
2017-08-03T09:15:33.807Z,885
2017-08-03T09:16:35.229Z,855
2017-08-03T09:17:36.629Z,840
2017-08-03T09:18:38.022Z,845
2017-08-03T09:19:39.449Z,930
2017-08-03T09:20:40.903Z,1120
2017-08-03T09:21:42.342Z,940
2017-08-03T09:22:43.741Z,895
2017-08-03T09:23:45.174Z,855
2017-08-03T09:24:46.596Z,960
2017-08-03T09:25:48.041Z,1200
2017-08-03T09:26:49.454Z,1160
2017-08-03T09:27:50.947Z,1020
2017-08-03T09:28:52.351Z,1085
2017-08-03T09:29:53.757Z,1135
2017-08-03T09:30:55.186Z,1010
2017-08-03T09:31:56.588Z,1185
2017-08-03T09:32:58.027Z,1405
2017-08-03T09:33:59.449Z,1140
2017-08-03T09:35:00.862Z,1040
2017-08-03T09:36:02.257Z,1080
2017-08-03T09:37:03.723Z,1220
2017-08-03T09:38:05.173Z,1095
2017-08-03T09:39:06.575Z,1050
2017-08-03T09:40:07.973Z,1060
2017-08-03T09:41:09.365Z,995
2017-08-03T09:42:10.765Z,1100
2017-08-03T09:43:12.166Z,1355
2017-08-03T09:44:13.564Z,1435
2017-08-03T09:45:14.961Z,1515
2017-08-03T09:46:16.357Z,1390
2017-08-03T09:47:17.771Z,1320
2017-08-03T09:48:19.167Z,1265
2017-08-03T09:49:20.573Z,1270
2017-08-03T09:50:21.969Z,1285
2017-08-03T09:51:23.364Z,1350
2017-08-03T09:52:24.765Z,1450
2017-08-03T09:53:26.198Z,1850
2017-08-03T09:55:08.614Z,1595
2017-08-03T09:56:10.007Z,1945
2017-08-03T09:57:11.401Z,1565
2017-08-03T09:58:12.802Z,1400
2017-08-03T09:59:14.194Z,1395
2017-08-03T10:00:15.624Z,1290
2017-08-03T10:01:17.021Z,1430
2017-08-03T10:02:18.436Z,1845
2017-08-03T10:03:19.865Z,1410
2017-08-03T10:05:02.272Z,4175
2017-08-03T10:06:03.687Z,5675
2017-08-03T10:07:05.093Z,4390
2017-08-03T10:08:06.489Z,1115
2017-08-03T10:09:07.890Z,1045
2017-08-03T10:10:09.307Z,1015
2017-08-03T10:11:10.737Z,1025
2017-08-03T10:12:12.139Z,1245
2017-08-03T10:13:13.530Z,1615
2017-08-03T10:14:14.941Z,3515
2017-08-03T10:15:16.341Z,1165
2017-08-03T10:16:17.737Z,1655
2017-08-03T10:17:19.130Z,1535
2017-08-03T10:18:20.527Z,1195
2017-08-03T10:19:21.931Z,2565
2017-08-03T10:20:23.328Z,3720
2017-08-03T10:21:24.727Z,4895
2017-08-03T10:22:26.172Z,5100
2017-08-03T10:23:27.568Z,2645
2017-08-03T10:24:28.966Z,3700
2017-08-03T10:25:30.415Z,4595
2017-08-03T10:26:31.791Z,4665
2017-08-03T10:27:33.192Z,4555
2017-08-03T10:28:34.683Z,4610
2017-08-03T10:29:36.087Z,4580
2017-08-03T10:30:37.489Z,4585
2017-08-03T10:32:19.895Z,4055
2017-08-03T10:33:21.301Z,4580
2017-08-03T10:34:22.708Z,4635
2017-08-03T10:35:24.113Z,4645
2017-08-03T10:36:25.512Z,4660
2017-08-03T10:37:26.915Z,4680
2017-08-03T10:38:28.316Z,4695
2017-08-03T10:39:29.726Z,4555
2017-08-03T10:40:31.122Z,4535
2017-08-03T10:41:32.524Z,4605
2017-08-03T10:42:33.931Z,4695
2017-08-03T10:43:35.330Z,4740
2017-08-03T10:45:17.751Z,3195
2017-08-03T10:46:19.158Z,1700
2017-08-03T10:47:20.576Z,5020
2017-08-03T10:48:21.979Z,4680
2017-08-03T10:49:23.388Z,3340
2017-08-03T10:50:24.799Z,1285
2017-08-03T10:51:26.197Z,975
2017-08-03T10:52:27.602Z,3005
2017-08-03T10:53:29.003Z,3770
2017-08-03T10:54:30.430Z,4610
2017-08-03T10:55:31.826Z,940
2017-08-03T10:56:33.228Z,1210
2017-08-03T10:57:34.634Z,955
2017-08-03T10:59:17.047Z,5345
2017-08-03T11:00:18.465Z,4455
2017-08-03T11:01:19.857Z,1090
2017-08-03T11:02:21.258Z,1235
2017-08-03T11:03:22.658Z,1695
2017-08-03T11:04:24.059Z,905
2017-08-03T11:05:25.473Z,705
2017-08-03T11:06:26.863Z,505
2017-08-03T11:07:28.260Z,660
2017-08-03T11:08:29.656Z,400
2017-08-03T11:09:31.109Z,625
2017-08-03T11:10:32.505Z,550
2017-08-03T11:11:33.903Z,265
2017-08-03T11:12:35.311Z,255
2017-08-03T11:13:36.708Z,290
2017-08-03T11:14:38.101Z,245
2017-08-03T11:15:39.498Z,235
2017-08-03T11:16:40.899Z,320
2017-08-03T11:17:42.297Z,360
2017-08-03T11:18:43.694Z,360
2017-08-03T11:19:45.109Z,305
2017-08-03T11:20:46.495Z,410
2017-08-03T11:21:47.887Z,410
2017-08-03T11:22:49.281Z,645
2017-08-03T11:23:50.673Z,820
2017-08-03T11:24:52.074Z,840
2017-08-03T11:25:53.545Z,4135
2017-08-03T11:26:54.945Z,1285
2017-08-03T11:27:56.347Z,950
2017-08-03T11:28:57.737Z,830
2017-08-03T11:29:59.130Z,3010
2017-08-03T11:31:00.550Z,915
2017-08-03T11:32:01.979Z,935
2017-08-03T11:33:03.427Z,600
2017-08-03T11:34:05.014Z,635
2017-08-03T11:35:06.553Z,910
2017-08-03T11:36:07.933Z,955
2017-08-03T11:37:09.327Z,815
2017-08-03T11:38:10.721Z,790
2017-08-03T11:39:12.124Z,705
2017-08-03T11:40:54.610Z,1015
2017-08-03T11:41:56.010Z,675
2017-08-03T11:42:57.401Z,615
2017-08-03T11:43:58.796Z,915
2017-08-03T11:45:00.239Z,475
2017-08-03T11:46:01.641Z,340
2017-08-03T11:47:03.027Z,365
2017-08-03T11:48:04.420Z,745
2017-08-03T11:49:05.812Z,895
2017-08-03T11:50:07.239Z,810
2017-08-03T11:51:08.631Z,1070
2017-08-03T11:52:10.030Z,1015
2017-08-03T11:53:11.423Z,1535
2017-08-03T11:54:12.832Z,940
2017-08-03T11:55:14.233Z,960
2017-08-03T11:56:15.677Z,1365
2017-08-03T11:57:17.079Z,835
2017-08-03T11:58:18.474Z,980
2017-08-03T11:59:20.040Z,4610
2017-08-03T12:00:21.436Z,1510
2017-08-03T12:01:22.829Z,2100
2017-08-03T12:02:24.303Z,3260
2017-08-03T12:03:25.711Z,1885
2017-08-03T12:04:27.105Z,2040
2017-08-03T12:05:28.521Z,4080
2017-08-03T12:06:29.898Z,1335
2017-08-03T12:07:31.297Z,5210
2017-08-03T12:08:32.697Z,1565
2017-08-03T12:09:34.201Z,1820
2017-08-03T12:10:35.622Z,945
2017-08-03T12:11:37.065Z,760
2017-08-03T12:12:38.466Z,1295
2017-08-03T12:13:39.889Z,1180
2017-08-03T12:14:41.265Z,930
2017-08-03T12:15:42.672Z,900
2017-08-03T12:16:44.095Z,1025
2017-08-03T12:17:45.523Z,4905
2017-08-03T12:18:46.940Z,1480
2017-08-03T12:19:48.379Z,1585
2017-08-03T12:20:49.790Z,4550
2017-08-03T12:21:51.226Z,1165
2017-08-03T12:22:52.665Z,765
2017-08-03T12:23:54.061Z,800
2017-08-03T12:24:55.692Z,1235
2017-08-03T12:25:57.088Z,2160
2017-08-03T12:26:58.488Z,1275
2017-08-03T12:27:59.924Z,4910
2017-08-03T12:29:01.316Z,4220
2017-08-03T12:30:02.717Z,4590
2017-08-03T12:31:04.122Z,4205
2017-08-03T12:32:05.628Z,4535
2017-08-03T12:33:07.452Z,1280
2017-08-03T12:34:09.631Z,910
2017-08-03T12:35:10.997Z,2240
2017-08-03T12:36:12.407Z,3715
2017-08-03T12:37:13.832Z,1345
2017-08-03T12:38:15.302Z,1660
2017-08-03T12:39:16.713Z,4210
2017-08-03T12:40:18.127Z,1340
2017-08-03T12:41:19.527Z,1375
2017-08-03T12:42:20.943Z,4545
2017-08-03T12:43:22.347Z,4600
2017-08-03T12:45:03.756Z,4675
2017-08-03T12:46:05.158Z,4410
2017-08-03T12:47:28.192Z,4335
2017-08-03T12:48:29.589Z,4460
2017-08-03T12:49:30.993Z,4470
2017-08-03T12:50:32.392Z,2585
2017-08-03T12:51:34.010Z,4425
2017-08-03T12:52:35.409Z,4310
2017-08-03T12:53:37.020Z,4185
2017-08-03T12:54:38.428Z,4175
2017-08-03T12:55:40.030Z,4295
2017-08-03T12:56:41.435Z,4175
2017-08-03T12:57:42.866Z,4245
2017-08-03T12:58:44.276Z,4480
2017-08-03T12:59:45.817Z,1945
2017-08-03T13:00:47.223Z,3615
2017-08-03T13:01:48.671Z,1145
2017-08-03T13:03:31.833Z,1305
2017-08-03T13:04:33.160Z,4445
2017-08-03T13:05:34.560Z,2940
2017-08-03T13:06:35.987Z,1400
2017-08-03T13:07:37.394Z,1185
2017-08-03T13:08:39.170Z,835
2017-08-03T13:09:40.580Z,940
2017-08-03T13:10:41.980Z,915
2017-08-03T13:11:43.379Z,715
2017-08-03T13:12:44.783Z,790
2017-08-03T13:13:46.183Z,685
2017-08-03T13:14:47.587Z,4385
2017-08-03T13:15:48.989Z,1005
2017-08-03T13:16:50.392Z,660
2017-08-03T13:17:51.799Z,860
2017-08-03T13:18:53.527Z,745
2017-08-03T13:19:55.014Z,470
2017-08-03T13:20:56.427Z,240
2017-08-03T13:21:57.902Z,230
2017-08-03T13:22:59.341Z,390
2017-08-03T13:24:00.793Z,350
2017-08-03T13:25:02.192Z,350
2017-08-03T13:26:03.595Z,435
2017-08-03T13:27:04.985Z,460
2017-08-03T13:28:06.398Z,520
2017-08-03T13:29:07.792Z,720
2017-08-03T13:30:09.980Z,1000
2017-08-03T13:31:11.736Z,4325
2017-08-03T13:32:13.145Z,1150
2017-08-03T13:33:14.607Z,975
2017-08-03T13:34:16.111Z,840
2017-08-03T13:35:17.489Z,1365
2017-08-03T13:36:18.920Z,4430
2017-08-03T13:37:20.410Z,4000
2017-08-03T13:38:21.868Z,905
2017-08-03T13:39:23.305Z,880
2017-08-03T13:40:24.749Z,705
2017-08-03T13:41:26.172Z,970
2017-08-03T13:42:27.569Z,1505
2017-08-03T13:43:28.965Z,1090
2017-08-03T13:44:30.429Z,1560
2017-08-03T13:45:31.829Z,1985
2017-08-03T13:46:33.228Z,3885
2017-08-03T13:47:34.621Z,3810
2017-08-03T13:48:36.041Z,3740
2017-08-03T13:49:37.990Z,3720
2017-08-03T13:50:40.206Z,3740
2017-08-03T13:51:41.861Z,3560
2017-08-03T13:52:43.311Z,3550
2017-08-03T13:53:44.710Z,3600
2017-08-03T13:54:46.122Z,3530
2017-08-03T13:55:47.520Z,3515
2017-08-03T13:56:48.956Z,3500
2017-08-03T13:57:50.367Z,3605
2017-08-03T13:58:51.784Z,3590
2017-08-03T14:00:34.182Z,3545
2017-08-03T14:01:35.775Z,3525
2017-08-03T14:02:37.381Z,3545
2017-08-03T14:03:38.780Z,3520
2017-08-03T14:04:40.244Z,3550
2017-08-03T14:05:41.658Z,3565
2017-08-03T14:06:43.103Z,3565
2017-08-03T14:07:45.135Z,860
2017-08-03T14:08:47.516Z,3380
2017-08-03T14:09:49.503Z,3510
2017-08-03T14:10:51.084Z,3485
2017-08-03T14:11:52.524Z,3450
2017-08-03T14:13:33.917Z,3605
2017-08-03T14:14:35.490Z,3620
2017-08-03T14:15:57.503Z,3550
2017-08-03T14:16:58.908Z,3525
2017-08-03T14:18:00.309Z,3385
2017-08-03T14:19:01.710Z,3425
2017-08-03T14:20:03.109Z,555
2017-08-03T14:21:04.510Z,2985
2017-08-03T14:22:05.955Z,2355
2017-08-03T14:23:07.357Z,3470
2017-08-03T14:24:08.757Z,3300
2017-08-03T14:25:10.163Z,695
2017-08-03T14:26:11.572Z,3480
2017-08-03T14:27:13.016Z,650
2017-08-03T14:28:14.516Z,2145
2017-08-03T14:29:16.135Z,3530
2017-08-03T14:30:17.603Z,3265
2017-08-03T14:31:19.004Z,640
2017-08-03T14:33:00.402Z,3320
2017-08-03T14:34:01.803Z,3230
2017-08-03T14:35:24.825Z,1655
2017-08-03T14:36:26.228Z,3285
2017-08-03T14:37:27.629Z,3195
2017-08-03T14:38:29.029Z,2670
2017-08-03T14:39:30.442Z,3180
2017-08-03T14:40:32.170Z,3120
2017-08-03T14:41:33.724Z,985
2017-08-03T14:42:35.112Z,3400
2017-08-03T14:43:36.514Z,750